Time;durP1;ratioP1;P1;durP2;ratioP2;P2;SDS_P1;SDS_P2;PMS_P1;PMS_P2;Temp;Humidity;BMP_temperature;BMP_pressure;BME280_temperature;BME280_humidity;BME280_pressure;Samples;Min_cycle;Max_cycle;Signal;HPM_P1;HPM_P2
2022/10/11 00:00:13;;;;;;;7.50;4.50;;;;;;;;;;5051182;28;20048;-55
2022/10/11 00:02:43;;;;;;;7.43;4.43;;;;;;;;;;5067348;28;20049;-53
2022/10/11 00:05:10;;;;;;;9.95;4.43;;;;;;;;;;5057335;28;20041;-54
2022/10/11 00:07:39;;;;;;;9.98;4.43;;;;;;;;;;5057870;28;20037;-53
2022/10/11 00:10:09;;;;;;;9.23;4.20;;;;;;;;;;5073962;28;20059;-56
2022/10/11 00:12:45;;;;;;;7.22;4.38;;;;;;;;;;5056614;28;20489;-55
2022/10/11 00:15:21;;;;;;;8.27;4.10;;;;;;;;;;5040077;28;20339;-54
2022/10/11 00:17:50;;;;;;;8.35;4.47;;;;;;;;;;5043846;28;20402;-54
2022/10/11 00:20:20;;;;;;;9.68;4.35;;;;;;;;;;5050899;28;20065;-56
2022/10/11 00:22:49;;;;;;;10.07;4.38;;;;;;;;;;5054238;28;20458;-53
2022/10/11 00:25:18;;;;;;;9.27;4.63;;;;;;;;;;5052208;28;20457;-52
2022/10/11 00:27:56;;;;;;;11.07;4.40;;;;;;;;;;5054171;28;20045;-52
2022/10/11 00:30:23;;;;;;;8.80;4.10;;;;;;;;;;5050517;28;20496;-52
2022/10/11 00:32:53;;;;;;;7.40;3.97;;;;;;;;;;5060283;28;20051;-54
2022/10/11 00:35:21;;;;;;;8.13;4.25;;;;;;;;;;5056179;28;20053;-54
2022/10/11 00:37:48;;;;;;;7.32;3.97;;;;;;;;;;5038337;28;20510;-56
2022/10/11 00:40:19;;;;;;;9.07;4.53;;;;;;;;;;5045721;28;20060;-53
2022/10/11 00:42:51;;;;;;;7.82;4.30;;;;;;;;;;5040259;28;20060;-53
2022/10/11 00:45:38;;;;;;;9.45;4.47;;;;;;;;;;5032043;28;20053;-54
2022/10/11 00:48:11;;;;;;;8.93;4.63;;;;;;;;;;5044375;28;20446;-52
2022/10/11 00:50:39;;;;;;;8.20;4.03;;;;;;;;;;5032747;28;20061;-54
2022/10/11 00:53:16;;;;;;;7.55;3.83;;;;;;;;;;5044746;28;20131;-52
2022/10/11 00:55:50;;;;;;;7.82;4.18;;;;;;;;;;5048114;28;20052;-52
2022/10/11 00:58:20;;;;;;;7.53;4.25;;;;;;;;;;5052325;28;20041;-53
2022/10/11 01:00:47;;;;;;;10.15;4.75;;;;;;;;;;5052948;28;20052;-53
2022/10/11 01:03:17;;;;;;;11.68;4.55;;;;;;;;;;5052779;28;20045;-54
2022/10/11 01:05:46;;;;;;;8.90;4.65;;;;;;;;;;5041743;28;20136;-56
2022/10/11 01:08:13;;;;;;;7.28;4.18;;;;;;;;;;5066628;28;20545;-57
2022/10/11 01:10:43;;;;;;;11.38;4.38;;;;;;;;;;5058965;28;20049;-57
2022/10/11 01:13:15;;;;;;;7.35;4.43;;;;;;;;;;5052040;28;20102;-57
2022/10/11 01:15:52;;;;;;;7.45;4.38;;;;;;;;;;5036370;28;20048;-56
2022/10/11 01:18:24;;;;;;;8.85;4.43;;;;;;;;;;5041240;28;20064;-57
2022/10/11 01:21:00;;;;;;;10.85;4.55;;;;;;;;;;5047520;28;20041;-57
2022/10/11 01:23:55;;;;;;;10.00;5.47;;;;;;;;;;5044462;28;20359;-55
2022/10/11 01:26:42;;;;;;;10.23;4.43;;;;;;;;;;5028122;28;20134;-55
2022/10/11 01:29:23;;;;;;;8.00;4.63;;;;;;;;;;5050644;28;20060;-57
2022/10/11 01:32:01;;;;;;;10.63;4.82;;;;;;;;;;5047528;28;20478;-55
2022/10/11 01:34:35;;;;;;;12.10;5.03;;;;;;;;;;5043683;28;20444;-56
2022/10/11 01:37:04;;;;;;;9.30;5.18;;;;;;;;;;5032098;28;20049;-57
2022/10/11 01:39:33;;;;;;;9.52;5.97;;;;;;;;;;5036294;28;20490;-57
2022/10/11 01:42:03;;;;;;;8.88;4.35;;;;;;;;;;5032571;28;20049;-56
2022/10/11 01:44:36;;;;;;;10.80;4.90;;;;;;;;;;5050511;28;20477;-57
2022/10/11 01:47:05;;;;;;;12.27;5.70;;;;;;;;;;5032404;28;20085;-57
2022/10/11 01:49:35;;;;;;;9.82;4.95;;;;;;;;;;5033024;28;20060;-57
2022/10/11 01:52:04;;;;;;;10.77;5.47;;;;;;;;;;5034884;28;20059;-57
2022/10/11 01:54:42;;;;;;;13.73;6.65;;;;;;;;;;5046953;28;20718;-55
2022/10/11 01:57:19;;;;;;;9.52;5.25;;;;;;;;;;5051573;28;20484;-57
2022/10/11 01:59:55;;;;;;;9.43;4.95;;;;;;;;;;5051644;28;20095;-57
2022/10/11 02:02:32;;;;;;;;;;;;;;;;;;5045552;28;20053;-57
2022/10/11 02:05:06;;;;;;;9.48;4.95;;;;;;;;;;5052816;28;19921;-57
2022/10/11 02:07:42;;;;;;;11.75;6.22;;;;;;;;;;5048629;28;20442;-57
2022/10/11 02:10:13;;;;;;;14.75;6.25;;;;;;;;;;5052322;28;20041;-56
2022/10/11 02:12:51;;;;;;;11.32;5.53;;;;;;;;;;5038087;28;20053;-56
2022/10/11 02:15:24;;;;;;;10.30;6.10;;;;;;;;;;5032060;28;20060;-56
2022/10/11 02:17:58;;;;;;;14.73;6.25;;;;;;;;;;5039030;28;20049;-56
2022/10/11 02:20:37;;;;;;;8.77;6.05;;;;;;;;;;5035669;28;20054;-58
2022/10/11 02:23:10;;;;;;;12.02;5.32;;;;;;;;;;5050561;28;20053;-57
2022/10/11 02:25:38;;;;;;;11.55;6.45;;;;;;;;;;5056082;28;20075;-58
2022/10/11 02:28:09;;;;;;;9.32;4.97;;;;;;;;;;5056042;28;20051;-57
2022/10/11 02:30:38;;;;;;;9.82;5.78;;;;;;;;;;5043676;28;20065;-57
2022/10/11 02:33:14;;;;;;;10.90;5.95;;;;;;;;;;5043605;28;20077;-58
2022/10/11 02:35:47;;;;;;;10.07;5.47;;;;;;;;;;5056200;28;20350;-58
2022/10/11 02:38:18;;;;;;;11.77;5.70;;;;;;;;;;5055682;28;20045;-58
2022/10/11 02:40:54;;;;;;;10.38;5.47;;;;;;;;;;5056049;28;20064;-58
2022/10/11 02:43:31;;;;;;;13.10;5.28;;;;;;;;;;5059853;28;20532;-57
2022/10/11 02:46:02;;;;;;;10.90;5.25;;;;;;;;;;5047404;28;20369;-58
2022/10/11 02:48:31;;;;;;;11.75;5.35;;;;;;;;;;5046024;28;20445;-57
2022/10/11 02:51:05;;;;;;;10.98;5.07;;;;;;;;;;5048226;28;20362;-58
2022/10/11 02:53:32;;;;;;;11.35;5.88;;;;;;;;;;5042453;28;20056;-56
2022/10/11 02:56:02;;;;;;;10.43;5.72;;;;;;;;;;5045249;28;20053;-58
2022/10/11 03:01:10;;;;;;;9.85;5.85;;;;;;;;;;5050827;28;20407;-56
2022/10/11 03:03:38;;;;;;;10.55;5.53;;;;;;;;;;5055035;28;20458;-58
2022/10/11 03:06:07;;;;;;;12.90;6.25;;;;;;;;;;5033129;28;20048;-57
2022/10/11 03:08:37;;;;;;;12.57;7.20;;;;;;;;;;5035373;28;20071;-58
2022/10/11 03:11:07;;;;;;;12.18;7.55;;;;;;;;;;5035485;28;20057;-57
2022/10/11 03:13:33;;;;;;;9.20;5.72;;;;;;;;;;5035620;28;20107;-57
2022/10/11 03:18:46;;;;;;;11.02;6.10;;;;;;;;;;5035143;28;20060;-58
2022/10/11 03:21:25;;;;;;;9.15;5.53;;;;;;;;;;5034211;28;20578;-58
2022/10/11 03:23:55;;;;;;;12.05;5.40;;;;;;;;;;5062167;28;20102;-57
2022/10/11 03:26:24;;;;;;;9.60;5.03;;;;;;;;;;5058252;28;20370;-56
2022/10/11 03:28:50;;;;;;;10.77;5.63;;;;;;;;;;5070305;28;20640;-57
2022/10/11 03:31:19;;;;;;;10.10;5.05;;;;;;;;;;5058513;28;20041;-58
2022/10/11 03:33:49;;;;;;;7.82;4.35;;;;;;;;;;5053875;28;20120;-58
2022/10/11 03:36:29;;;;;;;7.78;4.13;;;;;;;;;;5054647;28;20063;-58
2022/10/11 03:38:59;;;;;;;8.38;5.00;;;;;;;;;;5054345;28;20048;-57
2022/10/11 03:41:29;;;;;;;7.72;4.50;;;;;;;;;;5038103;28;20111;-56
2022/10/11 03:43:59;;;;;;;7.97;4.28;;;;;;;;;;5037054;28;20085;-57
2022/10/11 03:46:26;;;;;;;8.93;4.10;;;;;;;;;;5041605;28;20057;-57
2022/10/11 03:48:56;;;;;;;7.85;3.67;;;;;;;;;;5054487;28;20052;-57
2022/10/11 03:51:32;;;;;;;8.13;4.38;;;;;;;;;;5038302;28;20079;-57
2022/10/11 03:54:01;;;;;;;8.10;3.70;;;;;;;;;;5039918;28;20057;-58
2022/10/11 03:56:29;;;;;;;9.95;3.85;;;;;;;;;;5040691;28;20672;-57
2022/10/11 03:58:59;;;;;;;8.55;3.53;;;;;;;;;;5044708;28;20052;-58
2022/10/11 04:01:29;;;;;;;5.88;3.33;;;;;;;;;;5043667;28;20055;-58
2022/10/11 04:03:59;;;;;;;6.20;3.28;;;;;;;;;;5053758;28;20088;-57
2022/10/11 04:06:38;;;;;;;8.20;3.15;;;;;;;;;;5041632;28;20110;-58
2022/10/11 04:09:08;;;;;;;6.13;2.78;;;;;;;;;;5040160;28;20049;-58
2022/10/11 04:11:38;;;;;;;5.18;2.97;;;;;;;;;;5054202;28;20132;-58
2022/10/11 04:14:05;;;;;;;4.63;2.25;;;;;;;;;;5053893;28;20056;-57
2022/10/11 04:16:34;;;;;;;6.70;2.38;;;;;;;;;;5036680;28;20495;-58
2022/10/11 04:19:01;;;;;;;5.50;2.40;;;;;;;;;;5041681;28;20037;-57
2022/10/11 04:21:33;;;;;;;3.22;1.88;;;;;;;;;;5033669;28;20065;-56
2022/10/11 04:24:01;;;;;;;3.83;2.22;;;;;;;;;;5040458;28;20690;-57
2022/10/11 04:26:28;;;;;;;7.25;2.47;;;;;;;;;;5043709;28;20063;-57
2022/10/11 04:28:57;;;;;;;4.15;1.67;;;;;;;;;;5055325;28;20370;-57
2022/10/11 04:31:24;;;;;;;4.45;1.88;;;;;;;;;;5073745;28;20058;-58
2022/10/11 04:33:55;;;;;;;3.42;1.52;;;;;;;;;;5069617;28;20060;-57
2022/10/11 04:36:23;;;;;;;5.07;1.52;;;;;;;;;;5074105;28;20057;-57
2022/10/11 04:38:55;;;;;;;5.05;1.20;;;;;;;;;;5073424;28;20045;-57
2022/10/11 04:41:23;;;;;;;4.10;1.17;;;;;;;;;;5053292;28;20115;-57
2022/10/11 04:43:51;;;;;;;4.03;1.73;;;;;;;;;;5053698;28;20049;-58
2022/10/11 04:46:21;;;;;;;2.60;0.93;;;;;;;;;;5052827;28;20055;-58
2022/10/11 04:48:51;;;;;;;1.88;0.60;;;;;;;;;;5060892;28;20091;-57
2022/10/11 04:51:18;;;;;;;5.45;0.90;;;;;;;;;;5057633;28;20135;-57
2022/10/11 04:53:48;;;;;;;5.28;1.00;;;;;;;;;;5059935;28;20045;-58
2022/10/11 04:56:17;;;;;;;4.97;1.42;;;;;;;;;;5055349;28;20054;-58
2022/10/11 04:58:48;;;;;;;2.97;0.70;;;;;;;;;;5062514;28;20625;-53
2022/10/11 05:01:17;;;;;;;2.40;0.82;;;;;;;;;;5063345;28;20045;-56
2022/10/11 05:03:44;;;;;;;2.92;0.77;;;;;;;;;;5040341;28;20064;-54
2022/10/11 05:06:14;;;;;;;6.20;1.20;;;;;;;;;;5051515;28;20233;-54
2022/10/11 05:08:44;;;;;;;2.97;0.73;;;;;;;;;;5041735;28;20081;-57
2022/10/11 05:11:12;;;;;;;2.20;0.65;;;;;;;;;;5046701;28;20049;-57
2022/10/11 05:13:43;;;;;;;2.20;0.70;;;;;;;;;;5042847;28;20420;-58
2022/10/11 05:16:10;;;;;;;4.20;0.60;;;;;;;;;;5052481;28;20052;-58
2022/10/11 05:18:39;;;;;;;4.10;0.80;;;;;;;;;;5052521;28;20099;-57
2022/10/11 05:21:10;;;;;;;3.20;1.02;;;;;;;;;;5052150;28;20458;-55
2022/10/11 05:23:40;;;;;;;2.80;0.70;;;;;;;;;;5051820;28;20537;-54
2022/10/11 05:26:10;;;;;;;3.78;0.80;;;;;;;;;;5045980;28;20053;-56
2022/10/11 05:28:37;;;;;;;5.15;1.15;;;;;;;;;;5044912;28;20041;-58
2022/10/11 05:31:06;;;;;;;3.35;0.82;;;;;;;;;;5032806;28;20053;-58
2022/10/11 05:33:34;;;;;;;3.47;0.70;;;;;;;;;;5042962;28;20053;-58
2022/10/11 05:36:04;;;;;;;5.00;0.98;;;;;;;;;;5032823;28;20478;-58
2022/10/11 05:38:34;;;;;;;4.65;0.95;;;;;;;;;;5037411;28;20495;-58
2022/10/11 05:41:05;;;;;;;2.78;0.88;;;;;;;;;;5052768;28;20089;-58
2022/10/11 05:43:31;;;;;;;5.35;0.90;;;;;;;;;;5052458;28;20045;-57
2022/10/11 05:46:07;;;;;;;4.97;0.95;;;;;;;;;;5052206;28;20056;-57
2022/10/11 05:48:39;;;;;;;4.18;0.73;;;;;;;;;;5045237;28;20076;-58
2022/10/11 05:51:15;;;;;;;4.45;0.65;;;;;;;;;;5031423;28;20123;-58
2022/10/11 05:53:43;;;;;;;4.38;1.10;;;;;;;;;;5048972;28;20524;-56
2022/10/11 05:56:26;;;;;;;6.95;1.02;;;;;;;;;;5047614;28;20454;-58
2022/10/11 05:58:54;;;;;;;6.85;1.05;;;;;;;;;;5048090;28;20048;-58
2022/10/11 06:01:25;;;;;;;3.65;0.60;;;;;;;;;;5043115;28;20064;-58
2022/10/11 06:03:57;;;;;;;4.60;0.90;;;;;;;;;;5038867;28;20054;-57
2022/10/11 06:06:27;;;;;;;7.25;1.42;;;;;;;;;;5039369;28;20116;-56
2022/10/11 06:08:54;;;;;;;2.22;0.73;;;;;;;;;;5051960;28;20136;-56
2022/10/11 06:11:25;;;;;;;9.93;1.20;;;;;;;;;;5045936;28;20248;-57
2022/10/11 06:13:56;;;;;;;5.43;0.90;;;;;;;;;;5031559;28;20053;-54
2022/10/11 06:16:24;;;;;;;3.58;0.80;;;;;;;;;;5047704;28;20057;-51
2022/10/11 06:19:04;;;;;;;3.47;0.95;;;;;;;;;;5046784;28;20060;-56
2022/10/11 06:21:31;;;;;;;6.95;1.33;;;;;;;;;;5040836;28;20045;-56
2022/10/11 06:24:08;;;;;;;9.90;1.75;;;;;;;;;;5038829;28;20145;-53
2022/10/11 06:26:37;;;;;;;8.20;1.25;;;;;;;;;;5044206;28;20500;-55
2022/10/11 06:29:10;;;;;;;6.95;1.40;;;;;;;;;;5040659;28;20136;-55
2022/10/11 06:34:29;;;;;;;6.80;1.17;;;;;;;;;;5059813;28;20056;-53
2022/10/11 06:36:57;;;;;;;6.68;1.05;;;;;;;;;;5063448;28;20055;-55
2022/10/11 06:39:26;;;;;;;8.55;1.40;;;;;;;;;;5047757;28;20045;-53
2022/10/11 06:41:54;;;;;;;9.80;1.40;;;;;;;;;;5051965;28;20374;-53
2022/10/11 06:47:01;;;;;;;5.20;0.95;;;;;;;;;;5051118;28;20057;-54
2022/10/11 06:49:34;;;;;;;6.53;1.10;;;;;;;;;;5050190;28;20497;-54
2022/10/11 06:52:01;;;;;;;7.13;1.48;;;;;;;;;;5035861;28;20056;-55
2022/10/11 06:54:42;;;;;;;6.20;1.20;;;;;;;;;;5050402;28;20061;-57
2022/10/11 06:57:09;;;;;;;6.25;1.40;;;;;;;;;;5039123;28;20046;-56
2022/10/11 06:59:36;;;;;;;6.70;2.13;;;;;;;;;;5051302;28;20138;-56
2022/10/11 07:02:03;;;;;;;9.77;1.45;;;;;;;;;;5049999;28;20052;-56
2022/10/11 07:04:36;;;;;;;9.73;1.80;;;;;;;;;;5051581;28;20053;-55
2022/10/11 07:07:05;;;;;;;5.00;1.05;;;;;;;;;;5054716;28;20049;-51
2022/10/11 07:09:34;;;;;;;14.02;1.55;;;;;;;;;;5054848;28;20044;-53
2022/10/11 07:12:04;;;;;;;9.65;1.65;;;;;;;;;;5054573;28;20155;-52
2022/10/11 07:14:34;;;;;;;9.95;1.30;;;;;;;;;;5053863;28;20503;-52
2022/10/11 07:17:01;;;;;;;8.60;1.60;;;;;;;;;;5051179;28;20095;-56
2022/10/11 07:19:31;;;;;;;10.23;1.52;;;;;;;;;;5050697;28;20053;-55
2022/10/11 07:22:02;;;;;;;7.53;1.83;;;;;;;;;;5046883;28;20068;-51
2022/10/11 07:24:32;;;;;;;3.65;1.40;;;;;;;;;;5050689;28;20045;-54
2022/10/11 07:27:02;;;;;;;3.30;1.25;;;;;;;;;;5052298;28;20491;-57
2022/10/11 07:29:30;;;;;;;5.45;1.23;;;;;;;;;;5071607;28;20548;-56
2022/10/11 07:32:02;;;;;;;6.13;0.95;;;;;;;;;;5065112;28;20049;-54
2022/10/11 07:34:29;;;;;;;8.27;1.30;;;;;;;;;;5057332;28;20048;-54
2022/10/11 07:37:00;;;;;;;7.53;1.55;;;;;;;;;;5062456;28;20041;-53
2022/10/11 07:39:36;;;;;;;6.85;1.83;;;;;;;;;;5065880;28;20049;-55
2022/10/11 07:42:07;;;;;;;14.80;1.60;;;;;;;;;;5050548;28;20056;-52
2022/10/11 07:44:36;;;;;;;11.45;1.50;;;;;;;;;;5056975;28;20144;-54
2022/10/11 07:47:13;;;;;;;4.60;1.38;;;;;;;;;;5052803;28;20056;-52
2022/10/11 07:49:40;;;;;;;5.15;1.10;;;;;;;;;;5057578;28;20041;-56
2022/10/11 07:52:07;;;;;;;7.30;1.33;;;;;;;;;;5052494;28;20056;-57
2022/10/11 07:54:42;;;;;;;11.30;1.70;;;;;;;;;;5047987;28;20061;-51
2022/10/11 07:57:10;;;;;;;7.05;1.40;;;;;;;;;;5055781;28;20048;-53
2022/10/11 07:59:40;;;;;;;12.50;1.88;;;;;;;;;;5045988;28;20045;-53
2022/10/11 08:02:11;;;;;;;7.75;1.33;;;;;;;;;;5049982;28;20041;-53
2022/10/11 08:04:40;;;;;;;8.32;1.30;;;;;;;;;;5049140;28;20131;-52
2022/10/11 08:07:10;;;;;;;4.88;1.10;;;;;;;;;;5048822;28;20041;-52
2022/10/11 08:09:48;;;;;;;12.45;1.83;;;;;;;;;;5052494;28;20041;-55
2022/10/11 08:12:18;;;;;;;10.93;1.27;;;;;;;;;;5050614;28;20049;-55
2022/10/11 08:14:46;;;;;;;8.30;1.48;;;;;;;;;;5050857;28;20045;-55
2022/10/11 08:17:14;;;;;;;20.20;2.13;;;;;;;;;;5052544;28;20052;-56
2022/10/11 08:19:44;;;;;;;16.52;2.03;;;;;;;;;;5055141;28;20040;-55
2022/10/11 08:22:13;;;;;;;13.25;1.75;;;;;;;;;;5054220;28;20110;-55
2022/10/11 08:24:55;;;;;;;7.40;0.98;;;;;;;;;;5049187;28;20053;-53
2022/10/11 08:27:25;;;;;;;10.27;1.70;;;;;;;;;;5058328;28;20169;-53
2022/10/11 08:29:55;;;;;;;14.00;1.75;;;;;;;;;;5069956;28;20139;-56
2022/10/11 08:32:24;;;;;;;12.45;1.38;;;;;;;;;;5065503;28;20048;-56
2022/10/11 08:34:53;;;;;;;9.88;1.30;;;;;;;;;;5058259;28;20049;-56
2022/10/11 08:37:22;;;;;;;7.03;1.33;;;;;;;;;;5062178;28;20068;-56
2022/10/11 08:39:53;;;;;;;10.50;0.95;;;;;;;;;;5065427;28;20054;-56
2022/10/11 08:42:27;;;;;;;8.23;1.65;;;;;;;;;;5064857;28;20053;-54
2022/10/11 08:45:05;;;;;;;9.93;1.80;;;;;;;;;;5041227;28;20463;-54
2022/10/11 08:47:38;;;;;;;11.88;1.40;;;;;;;;;;5052902;28;20480;-53
2022/10/11 08:50:06;;;;;;;8.07;1.13;;;;;;;;;;5059359;28;20145;-55
2022/10/11 08:52:40;;;;;;;5.20;1.02;;;;;;;;;;5051274;28;20652;-56
2022/10/11 08:55:18;;;;;;;7.55;0.90;;;;;;;;;;5045823;28;20040;-55
2022/10/11 08:57:48;;;;;;;12.13;1.65;;;;;;;;;;5051993;28;20053;-52
2022/10/11 09:00:24;;;;;;;8.32;1.38;;;;;;;;;;5041280;28;20052;-54
2022/10/11 09:03:00;;;;;;;12.93;1.35;;;;;;;;;;5050972;28;20080;-54
2022/10/11 09:05:38;;;;;;;7.15;1.08;;;;;;;;;;5048466;28;20049;-51
2022/10/11 09:08:11;;;;;;;16.10;1.80;;;;;;;;;;5039947;28;20114;-57
2022/10/11 09:10:53;;;;;;;6.15;1.10;;;;;;;;;;5045215;28;20064;-54
2022/10/11 09:13:34;;;;;;;11.57;0.98;;;;;;;;;;5035755;28;20375;-54
2022/10/11 09:16:06;;;;;;;6.63;1.70;;;;;;;;;;5037804;28;20061;-54
2022/10/11 09:18:41;;;;;;;9.32;1.50;;;;;;;;;;5046374;28;20060;-54
2022/10/11 09:21:20;;;;;;;9.13;1.80;;;;;;;;;;5052304;28;20048;-52
2022/10/11 09:24:14;;;;;;;9.23;1.42;;;;;;;;;;5042245;28;20045;-55
2022/10/11 09:26:51;;;;;;;7.45;0.85;;;;;;;;;;5049771;28;20051;-52
2022/10/11 09:29:22;;;;;;;7.55;1.50;;;;;;;;;;5068033;28;20759;-52
2022/10/11 09:31:55;;;;;;;9.10;1.15;;;;;;;;;;5040518;28;20092;-55
2022/10/11 09:34:25;;;;;;;7.53;1.45;;;;;;;;;;5054211;28;20067;-52
2022/10/11 09:36:57;;;;;;;7.25;1.50;;;;;;;;;;5048338;28;20388;-52
2022/10/11 09:39:27;;;;;;;24.73;2.30;;;;;;;;;;5049041;28;20049;-53
2022/10/11 09:42:02;;;;;;;7.00;1.10;;;;;;;;;;5046592;28;20060;-55
2022/10/11 09:44:35;;;;;;;8.00;1.50;;;;;;;;;;5051610;28;20077;-52
2022/10/11 09:47:05;;;;;;;5.32;1.20;;;;;;;;;;5048196;28;20061;-51
2022/10/11 09:49:36;;;;;;;6.03;1.20;;;;;;;;;;5047656;28;20060;-51
2022/10/11 09:52:06;;;;;;;9.88;1.55;;;;;;;;;;5047732;28;20045;-53
2022/10/11 09:54:41;;;;;;;4.35;0.80;;;;;;;;;;5049696;28;20049;-52
2022/10/11 09:57:10;;;;;;;;;;;;;;;;;;5039848;28;20064;-52
2022/10/11 09:59:42;;;;;;;4.90;1.00;;;;;;;;;;5047643;28;19925;-52
2022/10/11 10:02:20;;;;;;;7.30;1.48;;;;;;;;;;5042160;28;20080;-52
2022/10/11 10:04:57;;;;;;;5.18;1.30;;;;;;;;;;5045022;28;20049;-56
2022/10/11 10:07:25;;;;;;;5.90;1.15;;;;;;;;;;5046138;28;20150;-56
2022/10/11 10:09:52;;;;;;;8.52;0.95;;;;;;;;;;5043566;28;20104;-56
2022/10/11 10:12:24;;;;;;;6.57;1.13;;;;;;;;;;5043002;28;20052;-57
2022/10/11 10:15:07;;;;;;;6.35;1.38;;;;;;;;;;5036589;28;20045;-56
2022/10/11 10:17:47;;;;;;;7.47;0.93;;;;;;;;;;5047946;28;20156;-52
2022/10/11 10:20:21;;;;;;;6.97;1.17;;;;;;;;;;5043310;28;20041;-54
2022/10/11 10:22:51;;;;;;;7.57;1.07;;;;;;;;;;5055088;28;20132;-56
2022/10/11 10:25:21;;;;;;;8.88;1.58;;;;;;;;;;5048422;28;20371;-56
2022/10/11 10:27:56;;;;;;;9.05;1.10;;;;;;;;;;5058134;28;20121;-55
2022/10/11 10:30:28;;;;;;;;;;;;;;;;;;5069005;28;20056;-56
2022/10/11 10:33:11;;;;;;;6.90;1.40;;;;;;;;;;5052680;28;19920;-56
2022/10/11 10:35:44;;;;;;;11.98;1.10;;;;;;;;;;5043317;28;20049;-54
2022/10/11 10:38:23;;;;;;;7.50;1.50;;;;;;;;;;5049203;28;20109;-56
2022/10/11 10:40:50;;;;;;;9.50;1.63;;;;;;;;;;5047380;28;20045;-55
2022/10/11 10:43:18;;;;;;;15.98;1.77;;;;;;;;;;5048903;28;20151;-53
2022/10/11 10:45:54;;;;;;;7.88;1.30;;;;;;;;;;5044345;28;20550;-56
2022/10/11 10:48:42;;;;;;;11.32;2.38;;;;;;;;;;5045580;28;20060;-55
2022/10/11 10:51:27;;;;;;;15.65;2.70;;;;;;;;;;5048083;28;20037;-54
2022/10/11 10:54:03;;;;;;;15.60;1.85;;;;;;;;;;5054111;28;20049;-54
2022/10/11 10:56:35;;;;;;;8.48;1.80;;;;;;;;;;5044058;28;20053;-57
2022/10/11 10:59:15;;;;;;;9.60;1.10;;;;;;;;;;5037652;28;20351;-57
2022/10/11 11:01:52;;;;;;;10.27;1.83;;;;;;;;;;5045948;28;20056;-51
2022/10/11 11:04:27;;;;;;;11.30;2.20;;;;;;;;;;5050477;28;20119;-51
2022/10/11 11:06:55;;;;;;;;;;;;;;;;;;5039087;28;20045;-51
2022/10/11 11:09:28;;;;;;;13.35;1.80;;;;;;;;;;5061806;28;20357;-49
2022/10/11 11:12:25;;;;;;;10.65;1.65;;;;;;;;;;5054727;28;20056;-49
2022/10/11 11:15:01;;;;;;;8.18;2.58;;;;;;;;;;5048265;28;20044;-50
2022/10/11 11:17:43;;;;;;;11.65;1.88;;;;;;;;;;5049039;28;20111;-50
2022/10/11 11:20:24;;;;;;;6.75;1.20;;;;;;;;;;5052391;28;20357;-55
2022/10/11 11:22:58;;;;;;;7.22;1.15;;;;;;;;;;5054033;28;20052;-53
2022/10/11 11:25:30;;;;;;;8.65;1.42;;;;;;;;;;5055142;28;20403;-55
2022/10/11 11:28:02;;;;;;;5.38;1.40;;;;;;;;;;5062677;28;20099;-51
2022/10/11 11:30:39;;;;;;;8.98;1.65;;;;;;;;;;5066689;28;20547;-53
2022/10/11 11:33:13;;;;;;;8.02;1.20;;;;;;;;;;5067848;28;20141;-54
2022/10/11 11:35:44;;;;;;;11.65;1.88;;;;;;;;;;5054074;28;20063;-55
2022/10/11 11:38:21;;;;;;;5.43;1.02;;;;;;;;;;5062775;28;20688;-52
2022/10/11 11:40:51;;;;;;;10.40;1.60;;;;;;;;;;5050331;28;20408;-56
2022/10/11 11:43:24;;;;;;;6.43;1.45;;;;;;;;;;5054701;28;20053;-56
2022/10/11 11:46:03;;;;;;;4.78;1.23;;;;;;;;;;5049807;28;20438;-55
2022/10/11 11:48:33;;;;;;;8.88;1.83;;;;;;;;;;5053766;28;20063;-54
2022/10/11 11:51:18;;;;;;;10.82;1.80;;;;;;;;;;5052754;28;20421;-55
2022/10/11 11:53:52;;;;;;;9.00;1.90;;;;;;;;;;5064092;28;20055;-54
2022/10/11 11:56:25;;;;;;;6.68;1.50;;;;;;;;;;5055440;28;20057;-55
2022/10/11 11:58:57;;;;;;;8.30;1.75;;;;;;;;;;5048905;28;20053;-50
2022/10/11 12:01:29;;;;;;;8.85;1.58;;;;;;;;;;5051816;28;20098;-52
2022/10/11 12:03:59;;;;;;;8.98;1.85;;;;;;;;;;5051822;28;20053;-54
2022/10/11 12:06:43;;;;;;;9.32;1.60;;;;;;;;;;5036507;28;20053;-53
2022/10/11 12:09:23;;;;;;;9.77;1.33;;;;;;;;;;5033949;28;20486;-54
2022/10/11 12:11:56;;;;;;;4.32;1.00;;;;;;;;;;5034271;28;20053;-56
2022/10/11 12:14:26;;;;;;;5.28;0.85;;;;;;;;;;5034973;28;20188;-55
2022/10/11 12:17:14;;;;;;;6.55;1.10;;;;;;;;;;5037898;28;20056;-55
2022/10/11 12:20:00;;;;;;;7.50;1.60;;;;;;;;;;5037739;28;20049;-54
2022/10/11 12:22:51;;;;;;;7.77;1.37;;;;;;;;;;5047174;28;20055;-52
2022/10/11 12:25:41;;;;;;;7.53;1.10;;;;;;;;;;5034700;28;20315;-55
2022/10/11 12:28:31;;;;;;;12.38;1.83;;;;;;;;;;5034889;28;20132;-51
2022/10/11 12:31:04;;;;;;;6.00;1.13;;;;;;;;;;5026983;28;20049;-57
2022/10/11 12:33:46;;;;;;;6.15;1.02;;;;;;;;;;5034901;28;20053;-54
2022/10/11 12:36:35;;;;;;;2.45;0.82;;;;;;;;;;5046106;28;20081;-53
2022/10/11 12:39:31;;;;;;;5.40;1.20;;;;;;;;;;5048778;28;20120;-55
2022/10/11 12:42:18;;;;;;;8.40;1.40;;;;;;;;;;5042122;28;20351;-52
2022/10/11 12:45:14;;;;;;;4.65;1.35;;;;;;;;;;5051741;28;20055;-55
2022/10/11 12:48:00;;;;;;;3.90;1.10;;;;;;;;;;5056154;28;20048;-55
2022/10/11 12:50:32;;;;;;;5.95;1.23;;;;;;;;;;5051347;28;20052;-55
2022/10/11 12:53:07;;;;;;;5.20;1.08;;;;;;;;;;5051787;28;20061;-51
2022/10/11 12:55:45;;;;;;;7.78;1.58;;;;;;;;;;5061272;28;20063;-51
2022/10/11 12:58:28;;;;;;;6.95;1.42;;;;;;;;;;5053529;28;20049;-52
2022/10/11 13:01:16;;;;;;;2.95;0.88;;;;;;;;;;5044819;28;20051;-51
2022/10/11 13:03:49;;;;;;;6.00;1.00;;;;;;;;;;5038321;28;20136;-53
2022/10/11 13:06:19;;;;;;;9.68;1.42;;;;;;;;;;5033893;28;20072;-51
2022/10/11 13:08:49;;;;;;;11.05;1.48;;;;;;;;;;5034277;28;20057;-53
2022/10/11 13:11:22;;;;;;;7.57;1.17;;;;;;;;;;5049599;28;20049;-53
2022/10/11 13:13:52;;;;;;;7.13;1.42;;;;;;;;;;5050058;28;20361;-52
2022/10/11 13:16:24;;;;;;;20.08;2.17;;;;;;;;;;5047855;28;20474;-53
2022/10/11 13:19:05;;;;;;;9.02;1.63;;;;;;;;;;5045848;28;20072;-51
2022/10/11 13:21:38;;;;;;;8.65;2.25;;;;;;;;;;5048616;28;20054;-50
2022/10/11 13:24:11;;;;;;;9.20;1.63;;;;;;;;;;5063280;28;20141;-55
2022/10/11 13:26:41;;;;;;;7.55;1.55;;;;;;;;;;5053043;28;20056;-55
2022/10/11 13:29:15;;;;;;;6.15;1.20;;;;;;;;;;5066889;28;20049;-53
2022/10/11 13:31:45;;;;;;;6.28;1.58;;;;;;;;;;5046249;28;20041;-54
2022/10/11 13:34:18;;;;;;;7.63;1.35;;;;;;;;;;5049448;28;20044;-52
2022/10/11 13:36:48;;;;;;;13.20;1.85;;;;;;;;;;5039683;28;20052;-58
2022/10/11 13:39:31;;;;;;;5.68;1.38;;;;;;;;;;5060362;28;20052;-53
2022/10/11 13:41:59;;;;;;;11.25;1.88;;;;;;;;;;5048058;28;20157;-55
2022/10/11 13:44:29;;;;;;;6.90;1.17;;;;;;;;;;5048887;28;20148;-53
2022/10/11 13:46:57;;;;;;;10.38;2.30;;;;;;;;;;5049846;28;20501;-51
2022/10/11 13:49:30;;;;;;;17.90;2.30;;;;;;;;;;5051415;28;20509;-54
2022/10/11 13:51:58;;;;;;;7.78;1.15;;;;;;;;;;5055607;28;20053;-54
2022/10/11 13:54:41;;;;;;;8.15;1.42;;;;;;;;;;5051836;28;20134;-50
2022/10/11 13:57:18;;;;;;;10.88;1.35;;;;;;;;;;5057320;28;20060;-54
2022/10/11 13:59:47;;;;;;;10.15;1.70;;;;;;;;;;5051605;28;20075;-54
2022/10/11 14:02:17;;;;;;;15.65;1.60;;;;;;;;;;5055171;28;20041;-54
2022/10/11 14:04:57;;;;;;;5.35;1.08;;;;;;;;;;5042188;28;20049;-54
2022/10/11 14:07:34;;;;;;;3.05;0.80;;;;;;;;;;5057857;28;20450;-53
2022/10/11 14:10:11;;;;;;;12.65;3.45;;;;;;;;;;5065918;28;20059;-54
2022/10/11 14:12:47;;;;;;;6.75;1.42;;;;;;;;;;5053911;28;20529;-55
2022/10/11 14:15:23;;;;;;;10.90;1.90;;;;;;;;;;5064821;28;20132;-54
2022/10/11 14:20:49;;;;;;;6.13;1.30;;;;;;;;;;5062733;28;20489;-53
2022/10/11 14:23:18;;;;;;;11.38;1.52;;;;;;;;;;5055459;28;20049;-56
2022/10/11 14:25:46;;;;;;;7.38;1.10;;;;;;;;;;5056367;28;20137;-50
2022/10/11 14:28:15;;;;;;;6.32;1.33;;;;;;;;;;5055411;28;20123;-52
2022/10/11 14:30:42;;;;;;;11.32;1.88;;;;;;;;;;5054761;28;20053;-54
2022/10/11 14:33:12;;;;;;;7.07;1.58;;;;;;;;;;5054346;28;20084;-53
2022/10/11 14:35:43;;;;;;;6.50;0.98;;;;;;;;;;5049361;28;20061;-55
2022/10/11 14:38:12;;;;;;;4.95;1.33;;;;;;;;;;5055594;28;20045;-54
2022/10/11 14:40:41;;;;;;;12.70;1.60;;;;;;;;;;5044932;28;20072;-52
2022/10/11 14:43:11;;;;;;;4.47;0.75;;;;;;;;;;5043316;28;20084;-54
2022/10/11 14:45:37;;;;;;;7.78;1.40;;;;;;;;;;5055149;28;20045;-55
2022/10/11 14:48:08;;;;;;;8.52;1.60;;;;;;;;;;5051788;28;20053;-51
2022/10/11 14:50:39;;;;;;;8.70;1.50;;;;;;;;;;5049953;28;20134;-54
2022/10/11 14:53:14;;;;;;;12.63;2.67;;;;;;;;;;5052298;28;20185;-54
2022/10/11 14:55:41;;;;;;;8.60;1.58;;;;;;;;;;5049254;28;20475;-52
2022/10/11 14:58:11;;;;;;;5.45;1.20;;;;;;;;;;5053999;28;20374;-51
2022/10/11 15:00:38;;;;;;;10.70;2.50;;;;;;;;;;5049755;28;20048;-51
2022/10/11 15:03:07;;;;;;;9.38;2.03;;;;;;;;;;5055193;28;20060;-55
2022/10/11 15:05:34;;;;;;;9.40;1.70;;;;;;;;;;5055379;28;20053;-56
2022/10/11 15:08:04;;;;;;;6.72;1.75;;;;;;;;;;5049857;28;20083;-51
2022/10/11 15:10:35;;;;;;;4.70;1.33;;;;;;;;;;5055095;28;20132;-49
2022/10/11 15:13:05;;;;;;;5.45;1.30;;;;;;;;;;5049171;28;20132;-50
2022/10/11 15:15:42;;;;;;;6.63;1.27;;;;;;;;;;5039636;28;20041;-54
2022/10/11 15:18:16;;;;;;;5.30;1.20;;;;;;;;;;5054911;28;20056;-50
2022/10/11 15:20:46;;;;;;;4.20;0.98;;;;;;;;;;5052216;28;20049;-50
2022/10/11 15:23:15;;;;;;;6.32;1.63;;;;;;;;;;5053523;28;20441;-50
2022/10/11 15:25:44;;;;;;;10.57;2.42;;;;;;;;;;5050132;28;20377;-50